createdAt,value
2024-05-09T00:01:55.698Z,10.98
2024-05-09T00:03:57.379Z,12.82
2024-05-09T00:05:59.161Z,15.50
2024-05-09T00:08:01.049Z,18.65
2024-05-09T00:10:05.372Z,22.40
2024-05-09T00:12:07.454Z,23.70
2024-05-09T00:14:09.306Z,18.75
2024-05-09T00:16:10.972Z,22.73
2024-05-09T00:18:12.872Z,25.60
2024-05-09T00:20:20.465Z,16.58
2024-05-09T00:22:26.348Z,11.07
2024-05-09T00:24:27.956Z,11.10
2024-05-09T00:26:29.852Z,9.30
2024-05-09T00:28:31.548Z,8.63
2024-05-09T00:30:35.973Z,8.35
2024-05-09T00:32:39.029Z,8.70
2024-05-09T00:34:40.774Z,8.80
2024-05-09T00:36:42.416Z,8.57
2024-05-09T00:38:45.539Z,9.90
2024-05-09T00:40:47.398Z,10.65
2024-05-09T00:42:49.262Z,9.85
2024-05-09T00:44:50.877Z,8.70
2024-05-09T00:46:55.540Z,8.45
2024-05-09T00:48:57.528Z,7.82
2024-05-09T00:50:59.595Z,7.80
2024-05-09T00:53:01.714Z,7.53
2024-05-09T00:55:03.496Z,8.20
2024-05-09T00:57:05.445Z,7.45
2024-05-09T00:59:07.450Z,7.95
2024-05-09T01:01:09.576Z,7.90
2024-05-09T01:03:13.367Z,7.78
2024-05-09T01:05:16.224Z,8.40
2024-05-09T01:07:17.866Z,8.73
2024-05-09T01:09:19.470Z,8.10
2024-05-09T01:11:21.256Z,8.30
2024-05-09T01:13:23.081Z,8.70
2024-05-09T01:15:24.767Z,7.88
2024-05-09T01:17:26.632Z,7.55
2024-05-09T01:19:30.427Z,7.10
2024-05-09T01:21:32.150Z,6.97
2024-05-09T01:23:34.424Z,7.55
2024-05-09T01:25:36.086Z,7.30
2024-05-09T01:27:37.935Z,8.43
2024-05-09T01:29:39.646Z,7.95
2024-05-09T01:31:41.348Z,7.53
2024-05-09T01:33:43.650Z,7.07
2024-05-09T01:35:45.414Z,8.25
2024-05-09T01:37:47.050Z,8.35
2024-05-09T01:39:48.821Z,8.80
2024-05-09T01:41:50.509Z,8.10
2024-05-09T01:43:52.284Z,7.68
2024-05-09T01:45:53.999Z,8.15
2024-05-09T01:47:55.948Z,7.93
2024-05-09T01:49:57.789Z,8.13
2024-05-09T01:51:59.638Z,9.07
2024-05-09T01:54:02.506Z,8.65
2024-05-09T01:56:04.447Z,9.15
2024-05-09T01:58:06.302Z,9.48
2024-05-09T02:00:10.300Z,8.95
2024-05-09T02:02:12.900Z,8.90
2024-05-09T02:04:14.920Z,9.18
2024-05-09T02:06:16.640Z,8.88
2024-05-09T02:08:20.291Z,8.95
2024-05-09T02:10:26.550Z,9.38
2024-05-09T02:12:34.004Z,9.63
2024-05-09T02:14:35.727Z,10.18
2024-05-09T02:16:37.338Z,10.25
2024-05-09T02:18:39.212Z,9.65
2024-05-09T02:20:42.378Z,9.35
2024-05-09T02:22:44.793Z,9.50
2024-05-09T02:24:46.523Z,9.55
2024-05-09T02:26:48.208Z,10.32
2024-05-09T02:28:49.980Z,9.82
2024-05-09T02:30:51.762Z,9.80
2024-05-09T02:32:53.495Z,11.15
2024-05-09T02:34:55.441Z,11.10
2024-05-09T02:36:57.202Z,12.45
2024-05-09T02:38:58.844Z,12.20
2024-05-09T02:41:00.669Z,13.43
2024-05-09T02:43:02.339Z,12.30
2024-05-09T02:45:04.250Z,10.48
2024-05-09T02:47:06.082Z,9.40
2024-05-09T02:49:07.836Z,9.85
2024-05-09T02:51:09.646Z,10.30
2024-05-09T02:53:11.645Z,10.45
2024-05-09T02:55:13.572Z,12.95
2024-05-09T02:57:15.237Z,18.25
2024-05-09T02:59:17.132Z,17.63
2024-05-09T03:01:18.863Z,14.43
2024-05-09T03:03:20.793Z,11.15
2024-05-09T03:05:22.790Z,10.50
2024-05-09T03:07:24.509Z,11.82
2024-05-09T03:09:26.109Z,10.02
2024-05-09T03:11:27.927Z,9.63
2024-05-09T03:13:29.876Z,11.77
2024-05-09T03:15:33.207Z,11.15
2024-05-09T03:17:35.220Z,10.80
2024-05-09T03:19:37.132Z,11.07
2024-05-09T03:21:42.151Z,9.93
2024-05-09T03:23:44.259Z,10.18
2024-05-09T03:25:46.028Z,9.57
2024-05-09T03:27:48.545Z,10.18
2024-05-09T03:29:50.410Z,10.55
2024-05-09T03:31:52.169Z,10.10
2024-05-09T03:33:53.926Z,11.40
2024-05-09T03:35:55.683Z,10.77
2024-05-09T03:37:57.414Z,10.90
2024-05-09T03:39:59.085Z,10.18
2024-05-09T03:42:00.712Z,9.75
2024-05-09T03:44:02.504Z,9.82
2024-05-09T03:46:04.584Z,8.52
2024-05-09T03:48:06.812Z,9.00
2024-05-09T03:50:15.176Z,8.88
2024-05-09T03:52:19.879Z,8.20
2024-05-09T03:54:22.031Z,7.60
2024-05-09T03:56:23.896Z,7.38
2024-05-09T03:58:25.639Z,7.30
2024-05-09T04:00:35.463Z,6.93
2024-05-09T04:02:43.284Z,7.43
2024-05-09T04:04:45.228Z,6.60
2024-05-09T04:06:47.005Z,6.88
2024-05-09T04:08:48.712Z,6.72
2024-05-09T04:10:50.438Z,6.90
2024-05-09T04:12:53.338Z,7.38
2024-05-09T04:14:55.060Z,7.30
2024-05-09T04:16:56.719Z,7.57
2024-05-09T04:18:58.478Z,7.93
2024-05-09T04:21:00.251Z,7.45
2024-05-09T04:23:02.120Z,7.85
2024-05-09T04:25:03.991Z,9.80
2024-05-09T04:27:05.760Z,9.30
2024-05-09T04:29:07.943Z,9.65
2024-05-09T04:31:09.650Z,10.40
2024-05-09T04:33:13.426Z,10.35
2024-05-09T04:35:18.682Z,12.10
2024-05-09T04:37:20.286Z,11.50
2024-05-09T04:39:22.022Z,11.02
2024-05-09T04:41:23.749Z,11.82
2024-05-09T04:43:25.418Z,12.20
2024-05-09T04:45:27.329Z,12.05
2024-05-09T04:47:29.104Z,11.85
2024-05-09T04:49:31.056Z,11.50
2024-05-09T04:51:32.804Z,9.30
2024-05-09T04:53:34.503Z,8.68
2024-05-09T04:55:36.532Z,8.02
2024-05-09T04:57:38.232Z,7.72
2024-05-09T04:59:39.928Z,11.98
2024-05-09T05:01:41.568Z,15.60
2024-05-09T05:03:43.420Z,22.40
2024-05-09T05:05:46.148Z,23.67
2024-05-09T05:07:48.180Z,17.75
2024-05-09T05:09:49.789Z,14.15
2024-05-09T05:11:51.952Z,7.53
2024-05-09T05:13:53.970Z,6.57
2024-05-09T05:15:57.708Z,4.75
2024-05-09T05:18:00.233Z,5.05
2024-05-09T05:20:02.398Z,5.00
2024-05-09T05:22:04.339Z,4.60
2024-05-09T05:24:06.249Z,4.93
2024-05-09T05:26:07.963Z,4.50
2024-05-09T05:28:10.156Z,5.45
2024-05-09T05:30:21.036Z,5.43
2024-05-09T05:32:27.048Z,5.32
2024-05-09T05:34:28.754Z,5.63
2024-05-09T05:36:30.511Z,5.18
2024-05-09T05:38:32.319Z,4.60
2024-05-09T05:40:37.199Z,6.13
2024-05-09T05:42:40.178Z,5.05
2024-05-09T05:44:41.892Z,4.63
2024-05-09T05:46:43.560Z,5.85
2024-05-09T05:48:45.447Z,5.78
2024-05-09T05:50:47.247Z,6.97
2024-05-09T05:52:49.004Z,5.00
2024-05-09T05:54:52.020Z,5.05
2024-05-09T05:56:53.697Z,5.30
2024-05-09T05:58:55.350Z,6.82
2024-05-09T06:00:57.085Z,5.93
2024-05-09T06:02:58.858Z,4.32
2024-05-09T06:05:00.772Z,4.60
2024-05-09T06:07:02.506Z,5.45
2024-05-09T06:09:04.158Z,6.60
2024-05-09T06:11:06.096Z,4.85
2024-05-09T06:13:13.019Z,6.00
2024-05-09T06:15:15.336Z,4.90
2024-05-09T06:17:17.111Z,4.50
2024-05-09T06:21:21.137Z,4.50
2024-05-09T06:23:22.894Z,4.00
2024-05-09T06:25:24.602Z,4.25
2024-05-09T06:27:26.248Z,4.22
2024-05-09T06:29:27.951Z,4.40
2024-05-09T06:31:29.756Z,4.10
2024-05-09T06:33:31.710Z,3.67
2024-05-09T06:35:34.185Z,4.03
2024-05-09T06:37:36.884Z,4.25
2024-05-09T06:39:38.521Z,3.60
2024-05-09T06:41:40.291Z,4.22
2024-05-09T06:43:42.187Z,4.00
2024-05-09T06:45:43.879Z,3.92
2024-05-09T06:47:45.611Z,3.92
2024-05-09T06:49:47.450Z,4.05
2024-05-09T06:51:49.347Z,3.97
2024-05-09T06:53:50.924Z,3.97
2024-05-09T06:55:52.925Z,3.85
2024-05-09T06:57:54.806Z,3.97
2024-05-09T06:59:59.855Z,4.15
2024-05-09T07:02:01.630Z,3.60
2024-05-09T07:04:03.473Z,3.33
2024-05-09T07:06:05.381Z,3.95
2024-05-09T07:08:07.735Z,5.18
2024-05-09T07:10:14.968Z,4.57
2024-05-09T07:12:24.819Z,4.45
2024-05-09T07:14:26.622Z,4.78
2024-05-09T07:16:28.272Z,3.92
2024-05-09T07:18:31.800Z,3.55
2024-05-09T07:20:35.261Z,4.63
2024-05-09T07:22:37.138Z,4.43
2024-05-09T07:24:38.773Z,4.70
2024-05-09T07:26:40.490Z,4.00
2024-05-09T07:28:42.456Z,3.53
2024-05-09T07:30:44.817Z,3.97
2024-05-09T07:32:46.759Z,3.05
2024-05-09T07:34:48.637Z,3.10
2024-05-09T07:36:50.372Z,3.17
2024-05-09T07:38:52.047Z,3.03
2024-05-09T07:40:53.735Z,3.28
2024-05-09T07:42:55.357Z,4.00
2024-05-09T07:45:00.923Z,2.95
2024-05-09T07:48:27.520Z,2.88
2024-05-09T07:53:14.379Z,3.40
2024-05-09T07:54:01.919Z,2.97
2024-05-09T07:56:04.288Z,3.00
2024-05-09T07:58:06.219Z,3.25
2024-05-09T08:00:11.756Z,3.00
2024-05-09T08:02:16.071Z,3.00
2024-05-09T08:04:17.907Z,2.90
2024-05-09T08:06:19.651Z,2.85
2024-05-09T08:08:21.841Z,2.83
2024-05-09T08:10:28.526Z,3.20
2024-05-09T08:12:30.972Z,2.60
2024-05-09T08:14:32.808Z,3.05
2024-05-09T08:16:34.507Z,2.92
2024-05-09T08:18:36.397Z,2.92
2024-05-09T08:20:38.645Z,3.30
2024-05-09T08:22:40.412Z,3.35
2024-05-09T08:24:42.914Z,2.83
2024-05-09T08:26:44.598Z,3.25
2024-05-09T08:28:46.338Z,2.50
2024-05-09T08:30:48.434Z,2.80
2024-05-09T08:32:50.384Z,2.80
2024-05-09T08:34:52.208Z,3.13
2024-05-09T08:36:56.288Z,4.20
2024-05-09T08:38:59.310Z,3.22
2024-05-09T08:41:03.715Z,2.92
2024-05-09T08:43:11.455Z,2.00
2024-05-09T08:45:14.682Z,2.40
2024-05-09T08:47:17.385Z,3.00
2024-05-09T08:49:19.254Z,2.80
2024-05-09T08:51:21.075Z,2.95
2024-05-09T08:53:22.867Z,2.53
2024-05-09T08:55:25.543Z,2.20
2024-05-09T08:57:28.984Z,2.25
2024-05-09T08:59:36.395Z,2.38
2024-05-09T09:01:41.719Z,2.63
2024-05-09T09:03:44.099Z,3.20
2024-05-09T09:05:55.811Z,2.85
2024-05-09T09:07:57.443Z,4.20
2024-05-09T09:10:04.149Z,5.57
2024-05-09T09:12:09.572Z,3.25
2024-05-09T09:14:12.303Z,2.22
2024-05-09T09:16:14.316Z,3.38
2024-05-09T09:18:16.950Z,2.78
2024-05-09T09:20:26.277Z,2.67
2024-05-09T09:22:35.448Z,2.60
2024-05-09T09:24:37.201Z,3.90
2024-05-09T09:26:38.837Z,3.22
2024-05-09T09:28:40.756Z,3.75
2024-05-09T09:30:43.520Z,3.65
2024-05-09T09:32:49.430Z,3.35
2024-05-09T09:34:52.236Z,3.20
2024-05-09T09:36:58.183Z,3.00
2024-05-09T09:39:00.278Z,3.00
2024-05-09T09:41:07.056Z,3.25
2024-05-09T09:43:14.948Z,2.95
2024-05-09T09:45:19.817Z,2.60
2024-05-09T09:47:22.156Z,2.70
2024-05-09T09:49:24.554Z,2.20
2024-05-09T09:51:26.827Z,2.65
2024-05-09T09:53:28.985Z,2.63
2024-05-09T09:55:32.784Z,4.45
2024-05-09T09:57:36.114Z,2.80
2024-05-09T09:59:41.220Z,2.40
2024-05-09T10:01:45.174Z,2.10
2024-05-09T10:03:47.197Z,3.60
2024-05-09T10:05:49.674Z,3.42
2024-05-09T10:07:53.411Z,2.60
2024-05-09T10:09:56.519Z,2.60
2024-05-09T10:12:09.735Z,2.70
2024-05-09T10:14:11.819Z,2.85
2024-05-09T10:16:22.306Z,2.65
2024-05-09T10:18:30.196Z,2.60
2024-05-09T10:20:46.295Z,2.70
2024-05-09T10:22:50.585Z,2.55
2024-05-09T10:24:54.126Z,2.47
2024-05-09T10:26:56.271Z,2.17
2024-05-09T10:28:58.865Z,2.33
2024-05-09T10:31:11.802Z,2.47
2024-05-09T10:33:13.870Z,2.88
2024-05-09T10:35:19.756Z,2.28
2024-05-09T10:37:22.268Z,2.50
2024-05-09T10:39:25.586Z,2.50
2024-05-09T10:41:27.256Z,2.35
2024-05-09T10:43:31.371Z,2.50
2024-05-09T10:45:35.514Z,2.00
2024-05-09T10:47:37.524Z,2.28
2024-05-09T10:49:39.386Z,2.15
2024-05-09T10:51:44.507Z,2.25
2024-05-09T10:53:48.387Z,2.10
2024-05-09T10:56:00.391Z,2.20
2024-05-09T10:58:02.200Z,2.08
2024-05-09T11:00:06.334Z,2.33
2024-05-09T11:02:11.017Z,2.10
2024-05-09T11:04:13.999Z,2.05
2024-05-09T11:06:17.279Z,1.90
2024-05-09T11:08:22.160Z,2.22
2024-05-09T11:10:27.930Z,2.22
2024-05-09T11:12:35.434Z,2.30
2024-05-09T11:14:37.190Z,2.28
2024-05-09T11:16:38.789Z,2.10
2024-05-09T11:18:40.797Z,2.13
2024-05-09T11:20:42.758Z,2.50
2024-05-09T11:22:44.567Z,2.20
2024-05-09T11:24:46.237Z,2.33
2024-05-09T11:26:47.957Z,2.10
2024-05-09T11:28:50.892Z,2.72
2024-05-09T11:30:52.755Z,2.10
2024-05-09T11:32:54.870Z,2.47
2024-05-09T11:34:56.602Z,2.20
2024-05-09T11:36:58.451Z,2.00
2024-05-09T11:39:00.090Z,1.95
2024-05-09T11:41:02.547Z,2.17
2024-05-09T11:43:05.882Z,2.10
2024-05-09T11:45:07.712Z,2.20
2024-05-09T11:47:09.464Z,2.10
2024-05-09T11:49:11.506Z,2.20
2024-05-09T11:51:13.236Z,2.10
2024-05-09T11:53:14.889Z,2.03
2024-05-09T11:55:18.811Z,1.92
2024-05-09T11:57:20.604Z,2.20
2024-05-09T11:59:22.335Z,1.90
2024-05-09T12:01:26.959Z,1.90
2024-05-09T12:03:29.748Z,2.10
2024-05-09T12:05:31.660Z,2.75
2024-05-09T12:07:33.422Z,2.20
2024-05-09T12:09:35.182Z,2.42
2024-05-09T12:11:37.004Z,2.35
2024-05-09T12:13:38.707Z,1.90
2024-05-09T12:15:40.428Z,1.92
2024-05-09T12:17:42.279Z,1.80
2024-05-09T12:19:44.036Z,2.03
2024-05-09T12:21:45.749Z,2.20
2024-05-09T12:23:47.413Z,2.22
2024-05-09T12:25:49.982Z,2.20
2024-05-09T12:27:51.914Z,2.58
2024-05-09T12:29:53.702Z,2.00
2024-05-09T12:31:55.381Z,2.03
2024-05-09T12:33:57.221Z,2.15
2024-05-09T12:35:59.148Z,2.45
2024-05-09T12:38:00.857Z,2.13
2024-05-09T12:40:03.725Z,2.35
2024-05-09T12:42:05.720Z,1.88
2024-05-09T12:44:07.372Z,2.30
2024-05-09T12:46:09.044Z,1.95
2024-05-09T12:48:12.462Z,2.40
2024-05-09T12:50:22.356Z,2.17
2024-05-09T12:52:31.272Z,2.25
2024-05-09T12:54:33.707Z,2.25
2024-05-09T12:56:36.112Z,2.22
2024-05-09T12:58:37.986Z,2.15
2024-05-09T13:00:39.903Z,2.05
2024-05-09T13:02:41.732Z,2.25
2024-05-09T13:04:43.638Z,1.98
2024-05-09T13:06:45.542Z,2.00
2024-05-09T13:08:48.009Z,2.10
2024-05-09T13:10:50.453Z,2.10
2024-05-09T13:12:52.653Z,2.15
2024-05-09T13:14:54.450Z,1.85
2024-05-09T13:16:56.308Z,2.15
2024-05-09T13:18:58.059Z,2.40
2024-05-09T13:20:59.679Z,2.15
2024-05-09T13:23:02.601Z,2.70
2024-05-09T13:25:04.744Z,2.00
2024-05-09T13:27:06.596Z,2.25
2024-05-09T13:29:08.392Z,2.55
2024-05-09T13:31:10.087Z,2.35
2024-05-09T13:33:14.074Z,2.17
2024-05-09T13:35:16.266Z,2.30
2024-05-09T13:37:18.007Z,2.40
2024-05-09T13:39:19.701Z,2.50
2024-05-09T13:41:21.352Z,2.10
2024-05-09T13:43:23.461Z,2.33
2024-05-09T13:45:25.144Z,2.50
2024-05-09T13:47:27.035Z,2.33
2024-05-09T13:49:28.762Z,2.13
2024-05-09T13:51:30.630Z,2.20
2024-05-09T13:53:32.512Z,2.30
2024-05-09T13:55:34.224Z,2.88
2024-05-09T13:57:35.910Z,2.25
2024-05-09T13:59:37.848Z,1.90
2024-05-09T14:01:39.666Z,2.03
2024-05-09T14:03:41.487Z,2.15
2024-05-09T14:05:43.496Z,1.80
2024-05-09T14:07:45.440Z,1.67
2024-05-09T14:09:47.327Z,2.40
2024-05-09T14:11:49.014Z,2.50
2024-05-09T14:13:50.979Z,3.75
2024-05-09T14:15:52.800Z,3.13
2024-05-09T14:17:55.411Z,3.45
2024-05-09T14:19:57.265Z,2.30
2024-05-09T14:21:58.892Z,3.55
2024-05-09T14:24:01.302Z,2.60
2024-05-09T14:26:02.950Z,2.10
2024-05-09T14:28:05.349Z,2.22
2024-05-09T14:30:14.933Z,1.70
2024-05-09T14:32:24.387Z,2.38
2024-05-09T14:34:26.444Z,2.25
2024-05-09T14:36:28.310Z,2.30
2024-05-09T14:38:30.589Z,2.10
2024-05-09T14:40:40.477Z,2.17
2024-05-09T14:42:45.175Z,1.92
2024-05-09T14:44:46.782Z,2.10
2024-05-09T14:46:48.527Z,3.00
2024-05-09T14:48:51.546Z,3.85
2024-05-09T14:50:53.438Z,2.80
2024-05-09T14:52:55.039Z,6.45
2024-05-09T14:55:00.350Z,4.00
2024-05-09T14:57:02.904Z,5.75
2024-05-09T14:59:04.596Z,4.47
2024-05-09T15:01:06.396Z,4.85
2024-05-09T15:03:08.517Z,3.90
2024-05-09T15:05:11.522Z,2.15
2024-05-09T15:07:13.376Z,1.90
2024-05-09T15:09:15.055Z,2.35
2024-05-09T15:11:16.788Z,2.38
2024-05-09T15:13:19.740Z,2.05
2024-05-09T15:15:21.729Z,2.20
2024-05-09T15:17:23.454Z,2.10
2024-05-09T15:19:25.262Z,2.63
2024-05-09T15:21:27.069Z,2.17
2024-05-09T15:23:28.748Z,3.47
2024-05-09T15:25:30.634Z,2.90
2024-05-09T15:27:32.473Z,2.35
2024-05-09T15:29:34.272Z,2.20
2024-05-09T15:31:36.063Z,3.72
2024-05-09T15:33:38.020Z,2.53
2024-05-09T15:35:41.685Z,2.38
2024-05-09T15:37:43.540Z,2.30
2024-05-09T15:39:45.382Z,3.03
2024-05-09T15:41:47.027Z,2.17
2024-05-09T15:43:48.742Z,2.30
2024-05-09T15:45:50.964Z,2.25
2024-05-09T15:47:52.967Z,2.13
2024-05-09T15:49:54.997Z,2.40
2024-05-09T15:51:56.630Z,2.22
2024-05-09T15:53:58.249Z,2.50
2024-05-09T15:56:00.043Z,2.10
2024-05-09T15:58:03.210Z,2.20
2024-05-09T16:00:09.965Z,2.50
2024-05-09T16:02:17.041Z,2.15
2024-05-09T16:04:19.047Z,2.20
2024-05-09T16:06:20.978Z,2.15
2024-05-09T16:08:22.663Z,2.08
2024-05-09T16:10:30.082Z,2.17
2024-05-09T16:12:34.551Z,1.80
2024-05-09T16:14:36.226Z,1.42
2024-05-09T16:16:38.148Z,2.30
2024-05-09T16:18:40.144Z,2.17
2024-05-09T16:20:43.551Z,2.15
2024-05-09T16:22:46.654Z,2.15
2024-05-09T16:24:48.461Z,2.58
2024-05-09T16:26:50.162Z,2.33
2024-05-09T16:28:51.853Z,2.63
2024-05-09T16:30:54.215Z,2.30
2024-05-09T16:32:56.144Z,2.50
2024-05-09T16:34:57.973Z,1.60
2024-05-09T16:37:00.257Z,2.28
2024-05-09T16:39:02.057Z,2.40
2024-05-09T16:41:04.000Z,2.25
2024-05-09T16:43:06.172Z,3.00
2024-05-09T16:45:08.259Z,3.10
2024-05-09T16:47:10.012Z,2.35
2024-05-09T16:49:11.933Z,2.15
2024-05-09T16:51:13.603Z,2.30
2024-05-09T16:53:15.347Z,2.30
2024-05-09T16:55:17.192Z,2.20
2024-05-09T16:57:19.034Z,2.30
2024-05-09T16:59:22.587Z,2.00
2024-05-09T17:01:24.468Z,2.33
2024-05-09T17:03:26.514Z,2.08
2024-05-09T17:05:29.742Z,1.85
2024-05-09T17:07:32.211Z,2.80
2024-05-09T17:09:33.963Z,2.00
2024-05-09T17:11:35.934Z,2.17
2024-05-09T17:13:40.961Z,2.50
2024-05-09T17:15:42.717Z,2.33
2024-05-09T17:17:44.522Z,2.50
2024-05-09T17:19:47.541Z,2.42
2024-05-09T17:21:49.400Z,2.47
2024-05-09T17:23:54.383Z,2.40
2024-05-09T17:25:56.138Z,2.72
2024-05-09T17:28:05.272Z,3.17
2024-05-09T17:30:09.980Z,6.43
2024-05-09T17:32:14.049Z,7.43
2024-05-09T17:34:15.935Z,9.45
2024-05-09T17:36:17.993Z,7.60
2024-05-09T17:38:19.820Z,4.85
2024-05-09T17:40:30.694Z,3.08
2024-05-09T17:42:36.115Z,2.95
2024-05-09T17:44:37.725Z,2.78
2024-05-09T17:46:39.609Z,2.90
2024-05-09T17:48:41.620Z,2.72
2024-05-09T17:50:43.474Z,2.60
2024-05-09T17:52:45.322Z,2.40
2024-05-09T17:54:46.983Z,3.83
2024-05-09T17:56:50.764Z,8.07
2024-05-09T17:58:52.473Z,8.00
2024-05-09T18:00:54.223Z,7.07
2024-05-09T18:02:56.050Z,6.15
2024-05-09T18:04:57.880Z,7.55
2024-05-09T18:06:59.741Z,10.85
2024-05-09T18:09:01.407Z,14.13
2024-05-09T18:11:03.072Z,14.98
2024-05-09T18:13:06.278Z,12.27
2024-05-09T18:15:08.501Z,11.32
2024-05-09T18:17:11.768Z,9.57
2024-05-09T18:19:13.724Z,8.13
2024-05-09T18:21:15.787Z,9.77
2024-05-09T18:23:18.691Z,10.98
2024-05-09T18:25:20.844Z,11.85
2024-05-09T18:27:23.716Z,12.98
2024-05-09T18:29:25.442Z,11.73
2024-05-09T18:31:27.204Z,11.93
2024-05-09T18:33:29.150Z,13.27
2024-05-09T18:35:30.915Z,16.80
2024-05-09T18:37:32.598Z,18.88
2024-05-09T18:39:34.398Z,14.63
2024-05-09T18:41:36.100Z,13.15
2024-05-09T18:43:44.682Z,12.85
2024-05-09T18:45:47.583Z,11.98
2024-05-09T18:47:49.624Z,14.43
2024-05-09T18:49:51.496Z,12.75
2024-05-09T18:51:53.208Z,12.88
2024-05-09T18:53:55.337Z,11.77
2024-05-09T18:55:57.643Z,13.80
2024-05-09T18:57:59.343Z,13.82
2024-05-09T19:00:01.205Z,14.35
2024-05-09T19:02:03.298Z,13.25
2024-05-09T19:04:05.397Z,14.63
2024-05-09T19:06:07.282Z,13.50
2024-05-09T19:08:09.231Z,13.27
2024-05-09T19:10:21.989Z,11.50
2024-05-09T19:12:27.311Z,10.07
2024-05-09T19:14:29.170Z,8.95
2024-05-09T19:16:31.519Z,12.63
2024-05-09T19:18:33.550Z,10.43
2024-05-09T19:20:36.611Z,9.52
2024-05-09T19:22:39.009Z,12.43
2024-05-09T19:24:41.229Z,9.18
2024-05-09T19:26:43.296Z,9.32
2024-05-09T19:28:45.064Z,8.38
2024-05-09T19:30:46.830Z,8.93
2024-05-09T19:32:48.639Z,11.50
2024-05-09T19:34:50.376Z,11.15
2024-05-09T19:36:52.059Z,11.82
2024-05-09T19:38:53.917Z,6.88
2024-05-09T19:40:55.746Z,6.22
2024-05-09T19:42:57.572Z,6.70
2024-05-09T19:44:59.343Z,6.28
2024-05-09T19:47:01.376Z,5.35
2024-05-09T19:49:04.871Z,7.20
2024-05-09T19:51:06.967Z,7.05
2024-05-09T19:53:08.817Z,32.15
2024-05-09T19:55:10.521Z,16.67
2024-05-09T19:57:14.614Z,9.40
2024-05-09T19:59:16.261Z,10.00
2024-05-09T20:01:18.143Z,39.97
2024-05-09T20:03:20.084Z,35.35
2024-05-09T20:05:22.052Z,20.02
2024-05-09T20:07:23.865Z,12.20
2024-05-09T20:09:25.632Z,8.50
2024-05-09T20:11:27.492Z,9.23
2024-05-09T20:13:29.245Z,11.77
2024-05-09T20:15:35.241Z,6.78
2024-05-09T20:17:38.540Z,9.70
2024-05-09T20:19:43.493Z,14.55
2024-05-09T20:21:45.325Z,13.60
2024-05-09T20:23:47.049Z,12.32
2024-05-09T20:25:48.780Z,11.20
2024-05-09T20:27:50.391Z,9.75
2024-05-09T20:29:52.060Z,10.02
2024-05-09T20:31:53.661Z,9.45
2024-05-09T20:33:55.411Z,8.52
2024-05-09T20:36:02.473Z,8.02
2024-05-09T20:38:04.880Z,8.40
2024-05-09T20:40:12.034Z,9.02
2024-05-09T20:42:17.214Z,8.82
2024-05-09T20:44:18.911Z,9.13
2024-05-09T20:46:20.836Z,8.80
2024-05-09T20:48:22.721Z,8.73
2024-05-09T20:50:35.400Z,9.38
2024-05-09T20:52:41.296Z,9.38
2024-05-09T20:54:42.921Z,9.23
2024-05-09T20:56:44.590Z,8.82
2024-05-09T20:58:46.239Z,10.82
2024-05-09T21:00:48.105Z,11.27
2024-05-09T21:02:49.884Z,10.32
2024-05-09T21:04:51.687Z,10.77
2024-05-09T21:06:53.392Z,10.18
2024-05-09T21:08:55.747Z,10.40
2024-05-09T21:10:57.453Z,9.57
2024-05-09T21:12:59.152Z,10.55
2024-05-09T21:15:00.751Z,11.00
2024-05-09T21:17:02.495Z,10.90
2024-05-09T21:19:04.297Z,10.77
2024-05-09T21:21:06.076Z,10.35
2024-05-09T21:23:08.015Z,10.63
2024-05-09T21:25:09.845Z,11.77
2024-05-09T21:27:13.063Z,11.05
2024-05-09T21:29:14.792Z,11.65
2024-05-09T21:31:16.521Z,10.60
2024-05-09T21:35:20.804Z,10.52
2024-05-09T21:37:22.477Z,10.10
2024-05-09T21:39:25.067Z,10.20
2024-05-09T21:41:26.691Z,10.27
2024-05-09T21:43:30.207Z,11.65
2024-05-09T21:45:32.398Z,9.52
2024-05-09T21:47:34.870Z,10.25
2024-05-09T21:49:36.710Z,9.63
2024-05-09T21:51:38.341Z,10.80
2024-05-09T21:53:40.474Z,14.45
2024-05-09T21:55:42.974Z,28.52
2024-05-09T21:57:44.740Z,72.95
2024-05-09T21:59:46.446Z,52.17
2024-05-09T22:01:48.205Z,39.03
2024-05-09T22:03:50.074Z,32.53
2024-05-09T22:05:51.800Z,32.22
2024-05-09T22:07:53.375Z,32.53
2024-05-09T22:09:55.052Z,28.67
2024-05-09T22:11:57.874Z,22.15
2024-05-09T22:13:59.761Z,20.42
2024-05-09T22:16:03.836Z,21.95
2024-05-09T22:18:06.614Z,19.30
2024-05-09T22:20:17.891Z,18.17
2024-05-09T22:22:23.622Z,13.25
2024-05-09T22:24:25.451Z,12.05
2024-05-09T22:26:27.066Z,12.48
2024-05-09T22:28:28.874Z,13.07
2024-05-09T22:30:36.603Z,11.80
2024-05-09T22:32:41.136Z,12.73
2024-05-09T22:34:42.932Z,13.27
2024-05-09T22:36:44.674Z,18.40
2024-05-09T22:38:46.424Z,17.13
2024-05-09T22:40:49.863Z,16.58
2024-05-09T22:42:51.919Z,16.75
2024-05-09T22:44:53.628Z,17.55
2024-05-09T22:46:55.453Z,13.02
2024-05-09T22:48:57.232Z,10.75
2024-05-09T22:50:59.065Z,10.48
2024-05-09T22:53:01.075Z,11.02
2024-05-09T22:55:03.739Z,9.88
2024-05-09T22:57:05.523Z,10.48
2024-05-09T22:59:08.124Z,10.90
2024-05-09T23:01:15.416Z,10.65
2024-05-09T23:03:18.750Z,9.75
2024-05-09T23:05:20.757Z,10.48
2024-05-09T23:07:22.544Z,9.35
2024-05-09T23:09:24.281Z,10.32
2024-05-09T23:11:25.956Z,10.15
2024-05-09T23:13:27.816Z,10.70
2024-05-09T23:15:29.817Z,10.27
2024-05-09T23:17:31.507Z,10.90
2024-05-09T23:19:33.598Z,10.95
2024-05-09T23:21:39.998Z,11.13
2024-05-09T23:23:42.490Z,11.77
2024-05-09T23:25:44.448Z,11.23
2024-05-09T23:27:46.125Z,12.85
2024-05-09T23:29:47.758Z,12.63
2024-05-09T23:31:49.415Z,12.20
2024-05-09T23:33:51.519Z,12.75
2024-05-09T23:35:53.688Z,11.15
2024-05-09T23:37:55.486Z,12.20
2024-05-09T23:39:57.204Z,12.02
2024-05-09T23:41:58.850Z,11.45
2024-05-09T23:44:00.471Z,11.55
2024-05-09T23:46:02.691Z,11.50
2024-05-09T23:48:04.975Z,11.30
2024-05-09T23:50:13.808Z,10.80
2024-05-09T23:52:18.333Z,11.10
2024-05-09T23:54:20.032Z,11.32
2024-05-09T23:56:21.734Z,11.00
2024-05-09T23:58:23.531Z,10.68
